sensor_id;sensor_type;location;lat;lon;timestamp;pressure;altitude;pressure_sealevel;temperature;humidity
24160;BME280;62385;41.594;23.808;2023-07-31T00:00:24;94912.16;;;21.58;63.85
24160;BME280;62385;41.594;23.808;2023-07-31T00:02:51;94905.50;;;21.66;63.41
24160;BME280;62385;41.594;23.808;2023-07-31T00:05:17;94907.88;;;21.62;63.31
24160;BME280;62385;41.594;23.808;2023-07-31T00:07:43;94907.78;;;21.79;63.15
24160;BME280;62385;41.594;23.808;2023-07-31T00:10:08;94915.44;;;21.87;63.03
24160;BME280;62385;41.594;23.808;2023-07-31T00:12:34;94904.69;;;21.65;64.11
24160;BME280;62385;41.594;23.808;2023-07-31T00:14:59;94911.69;;;21.66;64.09
24160;BME280;62385;41.594;23.808;2023-07-31T00:17:25;94903.88;;;21.43;64.17
24160;BME280;62385;41.594;23.808;2023-07-31T00:19:50;94899.91;;;21.50;64.43
24160;BME280;62385;41.594;23.808;2023-07-31T00:22:16;94910.03;;;21.60;64.36
24160;BME280;62385;41.594;23.808;2023-07-31T00:24:42;94904.84;;;21.58;64.01
24160;BME280;62385;41.594;23.808;2023-07-31T00:27:08;94892.00;;;21.44;64.62
24160;BME280;62385;41.594;23.808;2023-07-31T00:29:33;94892.69;;;21.34;64.55
24160;BME280;62385;41.594;23.808;2023-07-31T00:31:59;94895.25;;;21.68;63.46
24160;BME280;62385;41.594;23.808;2023-07-31T00:34:24;94885.72;;;21.60;63.43
24160;BME280;62385;41.594;23.808;2023-07-31T00:36:50;94888.03;;;21.51;63.84
24160;BME280;62385;41.594;23.808;2023-07-31T00:39:15;94884.75;;;21.71;63.26
24160;BME280;62385;41.594;23.808;2023-07-31T00:41:41;94870.03;;;21.62;63.34
24160;BME280;62385;41.594;23.808;2023-07-31T00:44:07;94869.59;;;21.70;62.95
24160;BME280;62385;41.594;23.808;2023-07-31T00:46:33;94866.88;;;21.70;63.51
24160;BME280;62385;41.594;23.808;2023-07-31T00:48:59;94876.38;;;21.94;63.33
24160;BME280;62385;41.594;23.808;2023-07-31T00:51:24;94865.69;;;22.09;62.76
24160;BME280;62385;41.594;23.808;2023-07-31T00:53:50;94873.44;;;22.01;62.92
24160;BME280;62385;41.594;23.808;2023-07-31T00:56:20;94875.56;;;22.26;62.19
24160;BME280;62385;41.594;23.808;2023-07-31T00:58:45;94876.84;;;21.91;64.25
24160;BME280;62385;41.594;23.808;2023-07-31T01:01:13;94891.25;;;21.97;65.02
24160;BME280;62385;41.594;23.808;2023-07-31T01:03:39;94905.94;;;21.57;67.55
24160;BME280;62385;41.594;23.808;2023-07-31T01:06:23;94903.34;;;21.68;66.65
24160;BME280;62385;41.594;23.808;2023-07-31T01:09:02;94912.56;;;21.45;68.28
24160;BME280;62385;41.594;23.808;2023-07-31T01:11:30;94901.63;;;21.35;68.31
24160;BME280;62385;41.594;23.808;2023-07-31T01:13:56;94918.25;;;21.48;67.64
24160;BME280;62385;41.594;23.808;2023-07-31T01:16:22;94903.13;;;21.47;67.54
24160;BME280;62385;41.594;23.808;2023-07-31T01:18:48;94909.19;;;21.59;66.91
24160;BME280;62385;41.594;23.808;2023-07-31T01:27:47;94905.44;;;21.39;66.92
24160;BME280;62385;41.594;23.808;2023-07-31T01:30:19;94911.00;;;21.54;66.94
24160;BME280;62385;41.594;23.808;2023-07-31T01:32:49;94908.22;;;21.44;67.33
24160;BME280;62385;41.594;23.808;2023-07-31T01:35:16;94912.88;;;21.48;67.81
24160;BME280;62385;41.594;23.808;2023-07-31T01:37:42;94907.97;;;21.24;68.85
24160;BME280;62385;41.594;23.808;2023-07-31T01:40:08;94908.41;;;21.15;70.39
24160;BME280;62385;41.594;23.808;2023-07-31T01:42:35;94902.81;;;21.22;70.04
24160;BME280;62385;41.594;23.808;2023-07-31T01:45:01;94916.53;;;21.21;69.99
24160;BME280;62385;41.594;23.808;2023-07-31T01:47:27;94913.41;;;21.29;70.92
24160;BME280;62385;41.594;23.808;2023-07-31T01:49:52;94917.50;;;21.31;71.03
24160;BME280;62385;41.594;23.808;2023-07-31T01:52:19;94911.91;;;21.38;70.40
24160;BME280;62385;41.594;23.808;2023-07-31T01:54:45;94921.72;;;21.44;70.17
24160;BME280;62385;41.594;23.808;2023-07-31T01:57:10;94927.19;;;21.49;70.47
24160;BME280;62385;41.594;23.808;2023-07-31T01:59:36;94934.34;;;21.38;71.62
24160;BME280;62385;41.594;23.808;2023-07-31T02:02:01;94932.84;;;21.74;70.13
24160;BME280;62385;41.594;23.808;2023-07-31T02:04:29;94927.81;;;21.34;71.13
24160;BME280;62385;41.594;23.808;2023-07-31T02:06:54;94922.59;;;21.28;71.89
24160;BME280;62385;41.594;23.808;2023-07-31T02:09:20;94924.84;;;20.97;72.57
24160;BME280;62385;41.594;23.808;2023-07-31T02:11:45;94908.81;;;21.07;73.83
24160;BME280;62385;41.594;23.808;2023-07-31T02:14:11;94910.59;;;21.18;73.79
24160;BME280;62385;41.594;23.808;2023-07-31T02:16:37;94903.31;;;21.41;73.70
24160;BME280;62385;41.594;23.808;2023-07-31T02:19:02;94902.25;;;21.20;74.47
24160;BME280;62385;41.594;23.808;2023-07-31T02:21:28;94907.75;;;21.30;74.39
24160;BME280;62385;41.594;23.808;2023-07-31T02:23:53;94912.91;;;21.53;73.56
24160;BME280;62385;41.594;23.808;2023-07-31T02:26:19;94905.31;;;21.50;74.86
24160;BME280;62385;41.594;23.808;2023-07-31T02:28:45;94903.88;;;21.43;74.94
24160;BME280;62385;41.594;23.808;2023-07-31T02:31:11;94898.00;;;21.24;74.94
24160;BME280;62385;41.594;23.808;2023-07-31T02:33:36;94879.22;;;20.96;76.38
24160;BME280;62385;41.594;23.808;2023-07-31T02:36:02;94879.84;;;21.20;76.63
24160;BME280;62385;41.594;23.808;2023-07-31T02:38:27;94866.88;;;21.43;75.74
24160;BME280;62385;41.594;23.808;2023-07-31T02:40:53;94882.44;;;21.58;74.62
24160;BME280;62385;41.594;23.808;2023-07-31T02:43:18;94877.59;;;21.60;73.65
24160;BME280;62385;41.594;23.808;2023-07-31T02:45:45;94893.59;;;21.40;74.86
24160;BME280;62385;41.594;23.808;2023-07-31T02:48:11;94885.53;;;21.45;73.83
24160;BME280;62385;41.594;23.808;2023-07-31T02:50:37;94885.72;;;21.38;73.84
24160;BME280;62385;41.594;23.808;2023-07-31T02:53:02;94889.63;;;21.47;73.62
24160;BME280;62385;41.594;23.808;2023-07-31T02:55:28;94892.06;;;21.27;75.92
24160;BME280;62385;41.594;23.808;2023-07-31T02:57:53;94893.66;;;21.06;76.54
24160;BME280;62385;41.594;23.808;2023-07-31T03:00:20;94894.66;;;21.00;76.79
24160;BME280;62385;41.594;23.808;2023-07-31T03:02:45;94899.50;;;20.98;76.37
24160;BME280;62385;41.594;23.808;2023-07-31T03:05:12;94879.94;;;20.91;76.20
24160;BME280;62385;41.594;23.808;2023-07-31T03:07:37;94890.91;;;21.01;76.25
24160;BME280;62385;41.594;23.808;2023-07-31T03:10:03;94903.72;;;21.11;77.11
24160;BME280;62385;41.594;23.808;2023-07-31T03:12:29;94895.38;;;21.12;76.17
24160;BME280;62385;41.594;23.808;2023-07-31T03:14:54;94902.59;;;21.50;74.28
24160;BME280;62385;41.594;23.808;2023-07-31T03:17:20;94888.78;;;21.47;73.77
24160;BME280;62385;41.594;23.808;2023-07-31T03:19:46;94894.19;;;21.47;73.19
24160;BME280;62385;41.594;23.808;2023-07-31T03:22:11;94905.56;;;21.27;74.57
24160;BME280;62385;41.594;23.808;2023-07-31T03:24:37;94892.94;;;21.33;73.78
24160;BME280;62385;41.594;23.808;2023-07-31T03:27:03;94891.06;;;21.33;74.00
24160;BME280;62385;41.594;23.808;2023-07-31T03:29:28;94886.91;;;21.26;74.36
24160;BME280;62385;41.594;23.808;2023-07-31T03:31:54;94897.09;;;21.40;73.95
24160;BME280;62385;41.594;23.808;2023-07-31T03:34:19;94895.16;;;21.14;75.58
24160;BME280;62385;41.594;23.808;2023-07-31T03:36:45;94888.56;;;21.27;76.14
24160;BME280;62385;41.594;23.808;2023-07-31T03:39:10;94894.56;;;21.34;74.57
24160;BME280;62385;41.594;23.808;2023-07-31T03:41:36;94900.88;;;21.39;74.39
24160;BME280;62385;41.594;23.808;2023-07-31T03:44:01;94884.97;;;21.43;74.22
24160;BME280;62385;41.594;23.808;2023-07-31T03:46:27;94898.00;;;21.24;75.54
24160;BME280;62385;41.594;23.808;2023-07-31T03:48:53;94907.47;;;20.71;76.39
24160;BME280;62385;41.594;23.808;2023-07-31T03:51:19;94917.63;;;21.20;75.23
24160;BME280;62385;41.594;23.808;2023-07-31T03:53:44;94918.94;;;21.39;73.37
24160;BME280;62385;41.594;23.808;2023-07-31T03:56:10;94927.63;;;21.19;73.97
24160;BME280;62385;41.594;23.808;2023-07-31T03:58:36;94923.44;;;20.40;76.57
24160;BME280;62385;41.594;23.808;2023-07-31T04:01:02;94929.22;;;20.65;76.25
24160;BME280;62385;41.594;23.808;2023-07-31T04:03:29;94909.53;;;20.64;75.71
24160;BME280;62385;41.594;23.808;2023-07-31T04:05:55;94918.25;;;20.88;75.12
24160;BME280;62385;41.594;23.808;2023-07-31T04:08:23;94937.16;;;21.10;74.29
24160;BME280;62385;41.594;23.808;2023-07-31T04:10:49;94929.13;;;21.32;74.03
24160;BME280;62385;41.594;23.808;2023-07-31T04:13:15;94923.44;;;21.11;73.39
24160;BME280;62385;41.594;23.808;2023-07-31T04:15:41;94917.75;;;21.30;76.14
24160;BME280;62385;41.594;23.808;2023-07-31T04:18:07;94936.72;;;21.56;74.07
24160;BME280;62385;41.594;23.808;2023-07-31T04:20:32;94934.63;;;21.63;73.77
24160;BME280;62385;41.594;23.808;2023-07-31T04:22:58;94931.81;;;21.53;72.24
24160;BME280;62385;41.594;23.808;2023-07-31T04:25:23;94915.06;;;21.51;73.68
24160;BME280;62385;41.594;23.808;2023-07-31T04:27:50;94938.41;;;21.62;74.44
24160;BME280;62385;41.594;23.808;2023-07-31T04:30:15;94921.81;;;21.54;75.04
24160;BME280;62385;41.594;23.808;2023-07-31T04:32:41;94934.78;;;21.74;74.93
24160;BME280;62385;41.594;23.808;2023-07-31T04:35:07;94950.13;;;21.95;72.63
24160;BME280;62385;41.594;23.808;2023-07-31T04:37:33;94945.94;;;21.82;72.20
24160;BME280;62385;41.594;23.808;2023-07-31T04:39:58;94936.44;;;21.80;71.21
24160;BME280;62385;41.594;23.808;2023-07-31T04:42:24;94946.38;;;22.23;71.22
24160;BME280;62385;41.594;23.808;2023-07-31T04:44:49;94955.97;;;22.35;70.01
24160;BME280;62385;41.594;23.808;2023-07-31T04:47:15;94957.50;;;22.26;69.73
24160;BME280;62385;41.594;23.808;2023-07-31T04:49:40;94947.59;;;22.37;69.14
24160;BME280;62385;41.594;23.808;2023-07-31T04:52:07;94957.03;;;22.34;69.51
24160;BME280;62385;41.594;23.808;2023-07-31T04:54:32;94943.16;;;22.26;68.66
24160;BME280;62385;41.594;23.808;2023-07-31T04:56:58;94940.50;;;22.31;69.40
24160;BME280;62385;41.594;23.808;2023-07-31T04:59:24;94934.03;;;22.32;70.89
24160;BME280;62385;41.594;23.808;2023-07-31T05:01:49;94928.34;;;22.33;70.20
24160;BME280;62385;41.594;23.808;2023-07-31T05:04:15;94946.16;;;22.56;69.83
24160;BME280;62385;41.594;23.808;2023-07-31T05:06:41;94942.47;;;22.40;69.71
24160;BME280;62385;41.594;23.808;2023-07-31T05:09:07;94937.50;;;22.00;70.17
24160;BME280;62385;41.594;23.808;2023-07-31T05:11:35;94932.91;;;22.28;70.12
24160;BME280;62385;41.594;23.808;2023-07-31T05:14:00;94950.44;;;22.52;69.86
24160;BME280;62385;41.594;23.808;2023-07-31T05:16:27;94951.38;;;22.36;70.15
24160;BME280;62385;41.594;23.808;2023-07-31T05:18:52;94948.56;;;22.26;70.77
24160;BME280;62385;41.594;23.808;2023-07-31T05:21:18;94953.28;;;22.35;71.75
24160;BME280;62385;41.594;23.808;2023-07-31T05:23:43;94951.72;;;22.44;70.13
24160;BME280;62385;41.594;23.808;2023-07-31T05:26:09;94924.75;;;22.54;69.41
24160;BME280;62385;41.594;23.808;2023-07-31T05:28:35;94947.78;;;22.89;68.04
24160;BME280;62385;41.594;23.808;2023-07-31T05:31:02;94935.09;;;22.99;67.91
24160;BME280;62385;41.594;23.808;2023-07-31T05:33:28;94949.06;;;23.23;65.39
24160;BME280;62385;41.594;23.808;2023-07-31T05:35:54;94934.75;;;23.33;64.82
24160;BME280;62385;41.594;23.808;2023-07-31T05:38:19;94940.31;;;23.53;64.44
24160;BME280;62385;41.594;23.808;2023-07-31T05:40:46;94946.22;;;23.45;65.11
24160;BME280;62385;41.594;23.808;2023-07-31T05:43:12;94941.84;;;23.39;65.09
24160;BME280;62385;41.594;23.808;2023-07-31T05:45:39;94962.03;;;23.63;64.43
24160;BME280;62385;41.594;23.808;2023-07-31T05:48:05;94950.50;;;23.41;64.83
24160;BME280;62385;41.594;23.808;2023-07-31T05:50:31;94955.78;;;23.58;63.91
24160;BME280;62385;41.594;23.808;2023-07-31T05:52:57;94958.72;;;23.51;64.17
24160;BME280;62385;41.594;23.808;2023-07-31T05:55:24;94950.69;;;23.71;64.48
24160;BME280;62385;41.594;23.808;2023-07-31T05:57:52;94957.50;;;23.84;62.56
24160;BME280;62385;41.594;23.808;2023-07-31T06:00:19;94954.50;;;23.75;63.29
24160;BME280;62385;41.594;23.808;2023-07-31T06:02:46;94957.78;;;23.87;63.62
24160;BME280;62385;41.594;23.808;2023-07-31T06:05:14;94948.75;;;23.62;66.49
24160;BME280;62385;41.594;23.808;2023-07-31T06:07:40;94958.06;;;23.81;65.56
24160;BME280;62385;41.594;23.808;2023-07-31T06:10:07;94961.03;;;23.79;66.19
24160;BME280;62385;41.594;23.808;2023-07-31T06:12:34;94952.88;;;23.79;66.01
24160;BME280;62385;41.594;23.808;2023-07-31T06:15:02;94946.59;;;23.64;67.28
24160;BME280;62385;41.594;23.808;2023-07-31T06:17:28;94951.19;;;23.63;67.07
24160;BME280;62385;41.594;23.808;2023-07-31T06:19:56;94955.81;;;23.68;66.61
24160;BME280;62385;41.594;23.808;2023-07-31T06:22:22;94955.94;;;24.03;65.00
24160;BME280;62385;41.594;23.808;2023-07-31T06:24:48;94952.16;;;24.14;65.67
24160;BME280;62385;41.594;23.808;2023-07-31T06:27:13;94940.56;;;24.34;64.07
24160;BME280;62385;41.594;23.808;2023-07-31T06:29:39;94940.03;;;24.52;63.62
24160;BME280;62385;41.594;23.808;2023-07-31T06:32:04;94936.22;;;24.48;62.27
24160;BME280;62385;41.594;23.808;2023-07-31T06:34:30;94948.19;;;24.47;61.80
24160;BME280;62385;41.594;23.808;2023-07-31T06:36:56;94942.22;;;24.60;62.21
24160;BME280;62385;41.594;23.808;2023-07-31T06:39:22;94948.19;;;24.62;60.40
24160;BME280;62385;41.594;23.808;2023-07-31T06:41:48;94938.69;;;24.70;59.40
24160;BME280;62385;41.594;23.808;2023-07-31T06:44:14;94938.94;;;24.73;60.43
24160;BME280;62385;41.594;23.808;2023-07-31T06:46:39;94926.50;;;24.93;58.00
24160;BME280;62385;41.594;23.808;2023-07-31T06:49:05;94932.19;;;24.71;59.15
24160;BME280;62385;41.594;23.808;2023-07-31T06:51:30;94925.38;;;24.58;61.28
24160;BME280;62385;41.594;23.808;2023-07-31T06:53:57;94936.50;;;24.82;60.96
24160;BME280;62385;41.594;23.808;2023-07-31T06:56:23;94922.41;;;24.80;59.06
24160;BME280;62385;41.594;23.808;2023-07-31T06:58:49;94927.03;;;25.00;59.59
24160;BME280;62385;41.594;23.808;2023-07-31T07:01:14;94932.72;;;25.13;58.22
24160;BME280;62385;41.594;23.808;2023-07-31T07:03:40;94926.41;;;25.28;56.64
24160;BME280;62385;41.594;23.808;2023-07-31T07:06:05;94932.09;;;25.26;57.11
24160;BME280;62385;41.594;23.808;2023-07-31T07:08:32;94920.41;;;25.36;57.64
24160;BME280;62385;41.594;23.808;2023-07-31T07:10:57;94925.84;;;25.36;57.03
24160;BME280;62385;41.594;23.808;2023-07-31T07:13:23;94922.81;;;25.43;55.98
24160;BME280;62385;41.594;23.808;2023-07-31T07:15:50;94923.59;;;25.63;55.69
24160;BME280;62385;41.594;23.808;2023-07-31T07:18:16;94913.88;;;25.37;54.56
24160;BME280;62385;41.594;23.808;2023-07-31T07:20:47;94921.69;;;25.64;54.41
24160;BME280;62385;41.594;23.808;2023-07-31T07:23:13;94922.53;;;25.59;55.06
24160;BME280;62385;41.594;23.808;2023-07-31T07:25:38;94936.06;;;25.75;53.45
24160;BME280;62385;41.594;23.808;2023-07-31T07:28:04;94932.44;;;25.94;53.65
24160;BME280;62385;41.594;23.808;2023-07-31T07:30:29;94923.59;;;25.63;54.27
24160;BME280;62385;41.594;23.808;2023-07-31T07:32:55;94927.34;;;25.78;51.84
24160;BME280;62385;41.594;23.808;2023-07-31T07:35:20;94919.34;;;26.01;53.44
24160;BME280;62385;41.594;23.808;2023-07-31T07:37:48;94920.03;;;25.73;51.88
24160;BME280;62385;41.594;23.808;2023-07-31T07:40:15;94914.47;;;25.98;52.31
24160;BME280;62385;41.594;23.808;2023-07-31T07:42:41;94914.59;;;26.27;51.49
24160;BME280;62385;41.594;23.808;2023-07-31T07:45:07;94916.72;;;26.30;50.64
24160;BME280;62385;41.594;23.808;2023-07-31T07:47:33;94899.97;;;26.13;49.40
24160;BME280;62385;41.594;23.808;2023-07-31T07:49:58;94911.16;;;26.06;48.81
24160;BME280;62385;41.594;23.808;2023-07-31T07:52:24;94916.84;;;26.05;49.65
24160;BME280;62385;41.594;23.808;2023-07-31T07:54:50;94909.53;;;26.49;47.74
24160;BME280;62385;41.594;23.808;2023-07-31T07:57:16;94903.09;;;26.35;47.80
24160;BME280;62385;41.594;23.808;2023-07-31T07:59:41;94908.13;;;26.52;48.46
24160;BME280;62385;41.594;23.808;2023-07-31T08:02:07;94910.63;;;26.48;47.50
24160;BME280;62385;41.594;23.808;2023-07-31T08:04:33;94904.69;;;26.41;46.78
24160;BME280;62385;41.594;23.808;2023-07-31T08:06:58;94893.19;;;26.49;46.39
24160;BME280;62385;41.594;23.808;2023-07-31T08:09:24;94908.47;;;26.45;45.38
24160;BME280;62385;41.594;23.808;2023-07-31T08:11:49;94904.41;;;26.77;46.33
24160;BME280;62385;41.594;23.808;2023-07-31T08:14:15;94900.81;;;26.81;45.90
24160;BME280;62385;41.594;23.808;2023-07-31T08:16:40;94888.28;;;26.85;45.25
24160;BME280;62385;41.594;23.808;2023-07-31T08:19:06;94899.28;;;27.04;45.21
24160;BME280;62385;41.594;23.808;2023-07-31T08:21:31;94902.31;;;27.26;45.25
24160;BME280;62385;41.594;23.808;2023-07-31T08:23:57;94901.66;;;27.34;44.45
24160;BME280;62385;41.594;23.808;2023-07-31T08:26:23;94899.34;;;27.46;45.00
24160;BME280;62385;41.594;23.808;2023-07-31T08:28:48;94892.44;;;27.30;45.06
24160;BME280;62385;41.594;23.808;2023-07-31T08:31:14;94885.72;;;27.46;45.34
24160;BME280;62385;41.594;23.808;2023-07-31T08:33:39;94886.28;;;27.48;45.52
24160;BME280;62385;41.594;23.808;2023-07-31T08:36:06;94885.91;;;27.55;46.04
24160;BME280;62385;41.594;23.808;2023-07-31T08:38:31;94883.94;;;27.37;44.77
24160;BME280;62385;41.594;23.808;2023-07-31T08:40:57;94880.81;;;27.48;44.38
24160;BME280;62385;41.594;23.808;2023-07-31T08:43:27;94879.59;;;27.60;44.43
24160;BME280;62385;41.594;23.808;2023-07-31T08:45:53;94880.84;;;27.20;44.51
24160;BME280;62385;41.594;23.808;2023-07-31T08:48:22;94851.38;;;27.45;43.43
24160;BME280;62385;41.594;23.808;2023-07-31T08:50:51;94871.63;;;27.39;44.65
24160;BME280;62385;41.594;23.808;2023-07-31T08:53:17;94874.94;;;28.03;43.59
24160;BME280;62385;41.594;23.808;2023-07-31T08:55:44;94874.13;;;28.02;43.42
24160;BME280;62385;41.594;23.808;2023-07-31T08:58:09;94857.22;;;27.81;43.95
24160;BME280;62385;41.594;23.808;2023-07-31T09:00:38;94875.00;;;28.16;44.26
24160;BME280;62385;41.594;23.808;2023-07-31T09:03:16;94857.09;;;28.10;43.32
24160;BME280;62385;41.594;23.808;2023-07-31T09:06:00;94868.66;;;28.39;42.30
24160;BME280;62385;41.594;23.808;2023-07-31T09:08:30;94868.53;;;28.63;42.44
24160;BME280;62385;41.594;23.808;2023-07-31T09:10:59;94863.28;;;28.67;42.30
24160;BME280;62385;41.594;23.808;2023-07-31T09:13:28;94874.75;;;28.50;40.71
24160;BME280;62385;41.594;23.808;2023-07-31T09:15:53;94866.88;;;28.49;41.00
24160;BME280;62385;41.594;23.808;2023-07-31T09:18:19;94857.69;;;28.77;40.30
24160;BME280;62385;41.594;23.808;2023-07-31T09:21:03;94852.03;;;28.87;40.74
24160;BME280;62385;41.594;23.808;2023-07-31T09:23:48;94862.47;;;28.66;40.45
24160;BME280;62385;41.594;23.808;2023-07-31T09:26:29;94861.63;;;28.71;38.71
24160;BME280;62385;41.594;23.808;2023-07-31T09:28:56;94853.41;;;28.71;39.32
24160;BME280;62385;41.594;23.808;2023-07-31T09:31:41;94854.06;;;28.95;39.35
24160;BME280;62385;41.594;23.808;2023-07-31T09:34:09;94854.22;;;29.17;38.58
24160;BME280;62385;41.594;23.808;2023-07-31T09:36:40;94854.25;;;29.58;37.41
24160;BME280;62385;41.594;23.808;2023-07-31T09:39:09;94855.09;;;28.99;38.63
24160;BME280;62385;41.594;23.808;2023-07-31T09:41:43;94843.81;;;29.33;38.25
24160;BME280;62385;41.594;23.808;2023-07-31T09:44:09;94848.09;;;29.39;38.77
24160;BME280;62385;41.594;23.808;2023-07-31T09:46:35;94847.75;;;29.68;39.49
24160;BME280;62385;41.594;23.808;2023-07-31T09:49:10;94839.53;;;29.13;39.79
24160;BME280;62385;41.594;23.808;2023-07-31T09:51:41;94855.78;;;28.91;39.15
24160;BME280;62385;41.594;23.808;2023-07-31T09:54:16;94852.94;;;29.42;39.37
24160;BME280;62385;41.594;23.808;2023-07-31T09:56:47;94850.78;;;29.80;38.70
24160;BME280;62385;41.594;23.808;2023-07-31T09:59:18;94839.13;;;29.88;38.65
24160;BME280;62385;41.594;23.808;2023-07-31T10:01:45;94838.34;;;29.47;37.85
24160;BME280;62385;41.594;23.808;2023-07-31T10:04:12;94830.00;;;29.79;36.71
24160;BME280;62385;41.594;23.808;2023-07-31T10:06:40;94830.09;;;29.74;37.48
24160;BME280;62385;41.594;23.808;2023-07-31T10:09:08;94821.09;;;29.87;37.33
24160;BME280;62385;41.594;23.808;2023-07-31T10:11:38;94816.13;;;29.62;37.00
24160;BME280;62385;41.594;23.808;2023-07-31T10:14:07;94812.41;;;29.58;37.25
24160;BME280;62385;41.594;23.808;2023-07-31T10:16:34;94807.09;;;29.89;38.00
24160;BME280;62385;41.594;23.808;2023-07-31T10:19:01;94806.25;;;30.24;37.38
24160;BME280;62385;41.594;23.808;2023-07-31T10:21:27;94820.44;;;30.04;37.36
24160;BME280;62385;41.594;23.808;2023-07-31T10:23:55;94814.63;;;30.41;36.83
24160;BME280;62385;41.594;23.808;2023-07-31T10:26:22;94814.41;;;30.51;35.34
24160;BME280;62385;41.594;23.808;2023-07-31T10:28:50;94815.34;;;30.11;36.93
24160;BME280;62385;41.594;23.808;2023-07-31T10:31:16;94819.34;;;30.27;36.37
24160;BME280;62385;41.594;23.808;2023-07-31T10:33:43;94818.56;;;30.71;37.05
24160;BME280;62385;41.594;23.808;2023-07-31T10:36:18;94798.97;;;30.86;36.20
24160;BME280;62385;41.594;23.808;2023-07-31T10:38:45;94810.88;;;30.82;36.36
24160;BME280;62385;41.594;23.808;2023-07-31T10:41:10;94806.38;;;30.86;36.67
24160;BME280;62385;41.594;23.808;2023-07-31T10:43:39;94791.38;;;31.05;37.11
24160;BME280;62385;41.594;23.808;2023-07-31T10:46:14;94800.19;;;31.02;35.52
24160;BME280;62385;41.594;23.808;2023-07-31T10:48:41;94811.22;;;31.11;36.05
24160;BME280;62385;41.594;23.808;2023-07-31T10:51:09;94795.13;;;31.18;35.29
24160;BME280;62385;41.594;23.808;2023-07-31T10:53:38;94800.56;;;30.34;35.54
24160;BME280;62385;41.594;23.808;2023-07-31T10:56:07;94796.38;;;30.37;36.94
24160;BME280;62385;41.594;23.808;2023-07-31T10:58:34;94804.19;;;30.96;35.73
24160;BME280;62385;41.594;23.808;2023-07-31T11:01:03;94798.34;;;30.89;35.64
24160;BME280;62385;41.594;23.808;2023-07-31T11:03:49;94803.31;;;31.09;34.55
24160;BME280;62385;41.594;23.808;2023-07-31T11:06:17;94799.22;;;31.38;33.70
24160;BME280;62385;41.594;23.808;2023-07-31T11:08:45;94796.34;;;32.08;35.84
24160;BME280;62385;41.594;23.808;2023-07-31T11:11:13;94780.94;;;31.98;35.89
24160;BME280;62385;41.594;23.808;2023-07-31T11:13:46;94777.06;;;31.99;36.20
24160;BME280;62385;41.594;23.808;2023-07-31T11:16:16;94780.59;;;31.18;36.68
24160;BME280;62385;41.594;23.808;2023-07-31T11:18:43;94782.94;;;30.71;36.81
24160;BME280;62385;41.594;23.808;2023-07-31T11:21:17;94765.41;;;31.11;37.28
24160;BME280;62385;41.594;23.808;2023-07-31T11:23:47;94782.81;;;30.76;38.59
24160;BME280;62385;41.594;23.808;2023-07-31T11:26:14;94787.53;;;30.62;37.53
24160;BME280;62385;41.594;23.808;2023-07-31T11:28:40;94777.69;;;30.61;36.98
24160;BME280;62385;41.594;23.808;2023-07-31T11:31:10;94788.53;;;30.66;37.47
24160;BME280;62385;41.594;23.808;2023-07-31T11:33:36;94785.91;;;30.61;37.53
24160;BME280;62385;41.594;23.808;2023-07-31T11:36:02;94791.06;;;30.85;37.57
24160;BME280;62385;41.594;23.808;2023-07-31T11:38:29;94777.38;;;30.40;36.25
24160;BME280;62385;41.594;23.808;2023-07-31T11:40:57;94753.06;;;30.39;37.61
24160;BME280;62385;41.594;23.808;2023-07-31T11:43:23;94779.41;;;30.26;38.04
24160;BME280;62385;41.594;23.808;2023-07-31T11:45:50;94792.81;;;30.36;38.40
24160;BME280;62385;41.594;23.808;2023-07-31T11:48:36;94789.31;;;29.23;39.38
24160;BME280;62385;41.594;23.808;2023-07-31T11:51:09;94789.81;;;29.25;39.47
24160;BME280;62385;41.594;23.808;2023-07-31T11:56:09;94787.66;;;30.12;38.81
24160;BME280;62385;41.594;23.808;2023-07-31T11:58:37;94778.09;;;30.68;38.14
24160;BME280;62385;41.594;23.808;2023-07-31T12:01:04;94775.06;;;30.78;37.83
24160;BME280;62385;41.594;23.808;2023-07-31T12:03:31;94766.94;;;30.64;37.33
24160;BME280;62385;41.594;23.808;2023-07-31T12:05:58;94786.53;;;30.36;37.02
24160;BME280;62385;41.594;23.808;2023-07-31T12:08:24;94799.63;;;29.53;39.48
24160;BME280;62385;41.594;23.808;2023-07-31T12:10:52;94789.91;;;29.61;40.58
24160;BME280;62385;41.594;23.808;2023-07-31T12:13:22;94794.69;;;29.14;42.75
24160;BME280;62385;41.594;23.808;2023-07-31T12:15:48;94800.97;;;28.69;44.83
24160;BME280;62385;41.594;23.808;2023-07-31T12:18:16;94802.19;;;28.30;48.47
24160;BME280;62385;41.594;23.808;2023-07-31T12:20:49;94778.25;;;27.90;53.43
24160;BME280;62385;41.594;23.808;2023-07-31T12:23:24;94791.66;;;27.68;55.29
24160;BME280;62385;41.594;23.808;2023-07-31T12:26:19;94803.84;;;26.85;57.39
24160;BME280;62385;41.594;23.808;2023-07-31T12:28:48;94803.56;;;26.82;59.75
24160;BME280;62385;41.594;23.808;2023-07-31T12:31:16;94818.50;;;26.60;57.50
24160;BME280;62385;41.594;23.808;2023-07-31T12:33:43;94826.31;;;26.67;58.67
24160;BME280;62385;41.594;23.808;2023-07-31T12:36:15;94841.94;;;26.23;64.68
24160;BME280;62385;41.594;23.808;2023-07-31T12:38:41;94845.38;;;25.40;67.56
24160;BME280;62385;41.594;23.808;2023-07-31T12:41:07;94850.41;;;25.03;66.71
24160;BME280;62385;41.594;23.808;2023-07-31T12:43:35;94850.22;;;24.28;70.57
24160;BME280;62385;41.594;23.808;2023-07-31T12:46:01;94848.31;;;26.08;57.81
24160;BME280;62385;41.594;23.808;2023-07-31T12:48:27;94837.81;;;26.30;63.04
24160;BME280;62385;41.594;23.808;2023-07-31T12:50:53;94839.31;;;26.07;67.64
24160;BME280;62385;41.594;23.808;2023-07-31T12:53:18;94837.13;;;26.48;64.42
24160;BME280;62385;41.594;23.808;2023-07-31T12:55:44;94832.47;;;26.20;68.34
24160;BME280;62385;41.594;23.808;2023-07-31T12:58:10;94817.78;;;26.11;68.91